Time;durP1;ratioP1;P1;durP2;ratioP2;P2;SDS_P1;SDS_P2;PMS_P1;PMS_P2;Temp;Humidity;BMP_temperature;BMP_pressure;BME280_temperature;BME280_humidity;BME280_pressure;Samples;Min_cycle;Max_cycle;Signal;HPM_P1;HPM_P2
2020/12/03 00:01:01;;;;;;;41.28;15.23;;;;;;;0.11;78.61;100557.31;1718036;83;21158;-72
2020/12/03 00:03:48;;;;;;;42.55;17.15;;;;;;;0.00;78.71;100563.13;1717788;83;21234;-71
2020/12/03 00:06:29;;;;;;;41.90;15.80;;;;;;;0.01;78.68;100563.52;1717873;83;21150;-71
2020/12/03 00:09:10;;;;;;;35.92;14.95;;;;;;;0.04;78.36;100562.63;1718063;83;21563;-70
2020/12/03 00:11:47;;;;;;;48.38;18.98;;;;;;;-0.10;78.73;100564.11;1717773;83;21174;-70
2020/12/03 00:14:14;;;;;;;45.58;18.32;;;;;;;-0.05;78.76;100561.88;1717628;83;21555;-70
2020/12/03 00:16:42;;;;;;;49.90;18.07;;;;;;;0.08;78.58;100561.72;1717819;83;21197;-71
2020/12/03 00:19:11;;;;;;;47.65;19.87;;;;;;;0.05;78.78;100565.65;1717824;83;21186;-71
2020/12/03 00:21:42;;;;;;;48.78;20.23;;;;;;;0.02;78.78;100559.20;1717815;83;21183;-73
2020/12/03 00:24:14;;;;;;;42.00;17.27;;;;;;;0.13;78.59;100554.27;1717920;83;21122;-71
2020/12/03 00:26:41;;;;;;;48.60;19.67;;;;;;;0.09;78.58;100560.39;1717954;83;21164;-71
2020/12/03 00:29:09;;;;;;;44.55;17.52;;;;;;;0.02;78.81;100559.20;1717845;83;21151;-71
2020/12/03 00:31:36;;;;;;;47.58;19.20;;;;;;;0.10;78.66;100552.14;1717784;83;21465;-71
2020/12/03 00:34:07;;;;;;;41.50;16.35;;;;;;;0.07;78.58;100554.34;1717819;83;21154;-72
2020/12/03 00:36:35;;;;;;;46.35;17.52;;;;;;;-0.04;78.77;100551.91;1717793;83;21768;-72
2020/12/03 00:39:08;;;;;;;41.50;17.67;;;;;;;0.03;78.74;100551.38;1717950;83;21146;-72
2020/12/03 00:41:35;;;;;;;35.25;15.43;;;;;;;0.09;78.55;100553.02;1717950;83;21111;-71
2020/12/03 00:44:03;;;;;;;41.85;17.45;;;;;;;-0.01;78.73;100547.11;1717844;83;21622;-72
2020/12/03 00:46:31;;;;;;;41.20;18.57;;;;;;;-0.02;78.79;100549.28;1717916;83;21194;-72
2020/12/03 00:49:01;;;;;;;37.50;17.50;;;;;;;0.14;78.51;100546.00;1718005;83;21214;-72
2020/12/03 00:51:29;;;;;;;42.55;17.10;;;;;;;0.18;78.53;100546.82;1717860;83;21320;-71
2020/12/03 00:53:56;;;;;;;37.88;16.30;;;;;;;0.11;78.46;100546.91;1717967;83;21159;-72
2020/12/03 00:56:24;;;;;;;39.78;17.07;;;;;;;0.13;78.35;100545.16;1717907;83;21348;-71
2020/12/03 00:58:51;;;;;;;49.25;20.45;;;;;;;0.08;78.16;100531.36;1717992;83;21170;-71
2020/12/03 01:01:20;;;;;;;42.50;17.27;;;;;;;0.06;78.34;100540.06;1717923;83;21143;-71
2020/12/03 01:03:48;;;;;;;39.80;15.65;;;;;;;0.02;78.48;100545.75;1718024;83;21194;-72
2020/12/03 01:06:18;;;;;;;46.58;19.23;;;;;;;0.12;78.27;100540.83;1717822;83;21277;-72
2020/12/03 01:08:46;;;;;;;44.70;17.48;;;;;;;0.10;78.37;100545.64;1717995;83;21292;-71
2020/12/03 01:11:13;;;;;;;47.30;18.00;;;;;;;0.05;78.43;100539.64;1722309;83;21158;-72
2020/12/03 01:13:40;;;;;;;48.30;20.60;;;;;;;0.11;78.51;100537.80;1718295;83;21634;-72
2020/12/03 01:16:18;;;;;;;38.35;16.23;;;;;;;0.27;78.33;100541.47;1718167;83;21154;-71
2020/12/03 01:18:48;;;;;;;38.60;18.37;;;;;;;0.27;78.54;100528.47;1718205;83;21731;-72
2020/12/03 01:21:20;;;;;;;46.65;22.15;;;;;;;0.21;78.76;100529.89;1717953;83;21166;-73
2020/12/03 01:23:50;;;;;;;45.85;21.30;;;;;;;0.23;78.79;100537.20;1720378;83;21189;-72
2020/12/03 01:26:18;;;;;;;39.50;15.70;;;;;;;0.38;78.25;100531.77;1725621;83;21283;-72
2020/12/03 01:28:47;;;;;;;52.98;22.27;;;;;;;0.32;78.50;100529.28;1725592;83;21177;-73
2020/12/03 01:31:14;;;;;;;43.80;19.65;;;;;;;0.25;78.72;100524.59;1725764;83;21197;-72
2020/12/03 01:33:42;;;;;;;33.92;16.27;;;;;;;0.28;78.71;100519.78;1725601;83;21166;-72
2020/12/03 01:36:11;;;;;;;43.92;19.20;;;;;;;0.31;78.50;100522.36;1725598;83;21161;-73
2020/12/03 01:38:38;;;;;;;49.90;21.55;;;;;;;0.21;78.76;100527.28;1697590;83;21141;-72
2020/12/03 01:41:05;;;;;;;48.23;20.45;;;;;;;0.13;79.11;100529.55;1725763;83;21150;-72
2020/12/03 01:43:32;;;;;;;49.33;22.00;;;;;;;0.26;78.91;100525.47;1725638;83;21610;-73
2020/12/03 01:46:02;;;;;;;47.83;21.75;;;;;;;0.38;78.51;100522.66;1725555;83;21138;-72
2020/12/03 01:48:46;;;;;;;48.33;20.48;;;;;;;0.37;78.59;100520.97;1725569;83;21141;-72
2020/12/03 01:51:27;;;;;;;48.08;21.20;;;;;;;0.31;78.66;100527.56;1725816;83;21166;-72
2020/12/03 01:53:59;;;;;;;43.05;21.12;;;;;;;0.32;78.64;100521.48;1725745;83;21128;-72
2020/12/03 01:56:59;;;;;;;42.80;17.85;;;;;;;0.47;78.24;100528.16;1725642;83;21295;-72
2020/12/03 01:59:48;;;;;;;44.95;18.65;;;;;;;0.44;78.23;100526.92;1746012;82;21201;-73
2020/12/03 02:02:23;;;;;;;51.92;26.25;;;;;;;0.25;78.67;100514.19;1803627;79;28050;-72
2020/12/03 02:05:13;;;;;;;53.80;24.37;;;;;;;0.41;78.34;100520.02;1792792;80;21130;-72
2020/12/03 02:07:41;;;;;;;54.33;23.42;;;;;;;0.65;77.83;100516.58;1792156;80;21182;-72
2020/12/03 02:10:11;;;;;;;48.05;21.35;;;;;;;0.63;77.70;100514.47;1792520;80;21126;-71
2020/12/03 02:12:38;;;;;;;52.53;22.35;;;;;;;0.57;77.79;100518.47;1803295;78;21659;-71
2020/12/03 02:15:07;;;;;;;47.08;20.65;;;;;;;0.69;77.58;100526.08;1825313;78;21162;-71
2020/12/03 02:17:34;;;;;;;32.95;15.93;;;;;;;0.72;77.44;100517.36;1757817;81;21745;-72
2020/12/03 02:20:07;;;;;;;49.50;22.85;;;;;;;0.55;77.70;100524.13;1757979;81;21747;-72
2020/12/03 02:22:34;;;;;;;42.43;17.15;;;;;;;0.43;77.95;100522.14;1757997;81;21336;-72
2020/12/03 02:25:01;;;;;;;41.13;18.20;;;;;;;0.45;77.87;100522.98;1757943;81;21611;-71
2020/12/03 02:27:28;;;;;;;52.85;21.73;;;;;;;0.56;77.45;100525.40;1757761;81;21690;-73
2020/12/03 02:29:57;;;;;;;53.92;23.25;;;;;;;0.51;77.51;100522.47;1756172;82;21182;-72
2020/12/03 02:32:25;;;;;;;52.60;21.62;;;;;;;0.40;77.83;100524.80;1757774;81;21349;-72
2020/12/03 02:34:53;;;;;;;43.02;16.45;;;;;;;0.37;77.91;100523.98;1757810;81;21183;-73
2020/12/03 02:37:20;;;;;;;51.23;21.48;;;;;;;0.51;77.52;100529.82;1757754;81;21313;-73
2020/12/03 02:39:50;;;;;;;53.13;23.42;;;;;;;0.41;77.71;100522.63;1757820;81;21269;-72
2020/12/03 02:42:20;;;;;;;41.73;17.15;;;;;;;0.34;78.08;100517.09;1757792;81;21182;-72
2020/12/03 02:44:48;;;;;;;48.13;20.90;;;;;;;0.35;77.99;100518.81;1758000;81;21309;-71
2020/12/03 02:47:19;;;;;;;49.95;20.52;;;;;;;0.48;77.69;100533.33;1757870;81;21308;-71
2020/12/03 02:49:47;;;;;;;38.02;16.23;;;;;;;0.49;77.73;100526.41;1757912;81;21174;-72
2020/12/03 02:52:21;;;;;;;50.15;22.07;;;;;;;0.45;77.89;100520.38;1758078;81;21301;-71
2020/12/03 02:54:50;;;;;;;59.03;22.62;;;;;;;0.36;77.99;100519.66;1757895;81;21151;-72
2020/12/03 02:57:17;;;;;;;59.35;23.20;;;;;;;0.35;78.03;100514.91;1757911;81;21162;-72
2020/12/03 02:59:44;;;;;;;55.60;22.50;;;;;;;0.33;78.17;100514.06;1757966;81;21844;-70
2020/12/03 03:02:12;;;;;;;45.75;18.40;;;;;;;0.43;77.99;100513.48;1744981;81;21314;-71
2020/12/03 03:04:39;;;;;;;42.35;17.55;;;;;;;0.49;77.80;100514.69;1811108;79;21307;-71
2020/12/03 03:07:06;;;;;;;49.48;19.15;;;;;;;0.37;78.04;100515.76;1742225;82;21313;-71
2020/12/03 03:09:34;;;;;;;51.85;22.93;;;;;;;0.27;78.40;100513.73;1810835;79;21635;-70
2020/12/03 03:12:02;;;;;;;49.80;21.23;;;;;;;0.35;78.22;100515.37;1810775;79;21274;-71
2020/12/03 03:14:29;;;;;;;50.10;22.10;;;;;;;0.49;77.83;100512.94;1741350;82;21164;-71
2020/12/03 03:16:57;;;;;;;51.88;22.32;;;;;;;0.44;77.88;100514.75;1810455;79;21317;-71
2020/12/03 03:19:24;;;;;;;59.45;23.18;;;;;;;0.31;78.15;100518.45;1741494;82;21183;-70
2020/12/03 03:21:52;;;;;;;54.38;22.70;;;;;;;0.31;78.31;100521.05;1810280;79;21175;-71
2020/12/03 03:24:19;;;;;;;59.05;24.25;;;;;;;0.43;77.96;100509.58;1741253;82;21729;-71
2020/12/03 03:26:47;;;;;;;53.65;22.85;;;;;;;0.42;77.95;100506.14;1810288;79;21172;-71
2020/12/03 03:29:14;;;;;;;59.05;23.32;;;;;;;0.36;78.12;100507.95;1741253;82;21330;-70
2020/12/03 03:31:41;;;;;;;53.10;23.18;;;;;;;0.31;78.22;100510.19;1810245;79;21798;-71
2020/12/03 03:34:09;;;;;;;53.63;21.55;;;;;;;0.45;78.06;100511.73;1741413;82;21671;-71
2020/12/03 03:36:36;;;;;;;57.08;24.10;;;;;;;0.51;77.74;100510.75;1810192;79;21191;-70
2020/12/03 03:39:05;;;;;;;50.67;20.20;;;;;;;0.43;77.84;100516.94;1810284;79;21270;-70
2020/12/03 03:41:34;;;;;;;56.50;22.42;;;;;;;0.37;78.06;100510.98;1810263;79;21151;-71
2020/12/03 03:44:01;;;;;;;50.43;23.25;;;;;;;0.38;77.94;100518.75;1741504;82;21710;-71
2020/12/03 03:46:28;;;;;;;57.15;22.87;;;;;;;0.45;77.69;100507.38;1810159;79;21136;-71
2020/12/03 03:48:55;;;;;;;54.70;22.20;;;;;;;0.39;77.73;100510.06;1810523;79;21203;-71
2020/12/03 03:51:23;;;;;;;45.20;18.73;;;;;;;0.26;77.92;100510.70;1741475;82;21306;-72
2020/12/03 03:53:50;;;;;;;53.20;22.95;;;;;;;0.27;78.08;100509.83;1810277;79;21177;-71
2020/12/03 03:56:18;;;;;;;56.20;22.82;;;;;;;0.37;77.89;100517.06;1810333;79;21148;-70
2020/12/03 03:58:46;;;;;;;56.53;24.60;;;;;;;0.33;78.03;100512.77;1810336;79;21583;-70
2020/12/03 04:01:13;;;;;;;51.68;21.27;;;;;;;0.26;78.11;100513.31;1743465;82;21671;-71
2020/12/03 04:03:40;;;;;;;54.18;24.35;;;;;;;0.18;78.31;100511.28;1818749;79;21638;-72
2020/12/03 04:06:09;;;;;;;57.53;23.42;;;;;;;0.27;78.02;100511.55;1818719;79;21111;-72
2020/12/03 04:08:36;;;;;;;60.15;24.98;;;;;;;0.27;77.82;100507.23;1818825;79;21167;-71
2020/12/03 04:11:03;;;;;;;59.77;23.02;;;;;;;0.18;78.08;100503.91;1749327;82;21714;-72
2020/12/03 04:13:31;;;;;;;52.40;21.60;;;;;;;0.15;78.33;100508.29;1818824;79;21147;-71
2020/12/03 04:15:58;;;;;;;45.48;20.12;;;;;;;0.28;77.84;100495.95;1819007;79;21167;-72
2020/12/03 04:18:26;;;;;;;44.93;19.07;;;;;;;0.27;77.93;100506.34;1818808;79;21155;-71
2020/12/03 04:20:58;;;;;;;37.00;14.80;;;;;;;0.15;78.22;100509.59;1819027;79;21132;-71
2020/12/03 04:23:25;;;;;;;41.98;18.20;;;;;;;0.11;78.42;100503.14;1818603;79;21183;-72
2020/12/03 04:25:52;;;;;;;45.00;20.27;;;;;;;0.23;78.21;100500.78;1818776;79;21135;-72
2020/12/03 04:28:20;;;;;;;35.60;16.27;;;;;;;0.22;78.30;100502.96;1818888;79;21103;-72
2020/12/03 04:30:47;;;;;;;36.38;14.63;;;;;;;0.20;78.44;100503.45;1818882;79;21627;-72
2020/12/03 04:33:14;;;;;;;49.70;21.30;;;;;;;0.15;78.49;100505.69;1719760;82;21171;-73
2020/12/03 04:35:41;;;;;;;42.83;19.05;;;;;;;0.30;78.14;100497.22;1818777;79;21167;-73
2020/12/03 04:38:09;;;;;;;37.73;14.78;;;;;;;0.37;77.80;100511.86;1818962;79;21155;-73
2020/12/03 04:40:40;;;;;;;43.30;18.07;;;;;;;0.31;77.86;100517.16;1818816;79;21182;-72
2020/12/03 04:43:19;;;;;;;45.15;19.05;;;;;;;0.21;78.11;100519.48;1818841;79;21293;-72
2020/12/03 04:46:01;;;;;;;48.08;20.90;;;;;;;0.23;78.03;100513.80;1784618;79;21171;-72
2020/12/03 04:48:49;;;;;;;45.03;19.30;;;;;;;0.34;77.66;100513.19;1818988;79;21182;-72
2020/12/03 04:52:06;;;;;;;37.35;17.10;;;;;;;0.31;77.82;100517.16;1749821;82;21175;-71
2020/12/03 04:55:08;;;;;;;41.65;17.87;;;;;;;0.22;78.02;100521.17;1818689;79;21285;-72
2020/12/03 04:58:02;;;;;;;44.00;18.30;;;;;;;0.24;78.02;100520.27;1818970;79;21151;-72
2020/12/03 05:00:35;;;;;;;46.63;19.10;;;;;;;0.24;77.96;100518.12;1819030;79;21203;-73
2020/12/03 05:03:29;;;;;;;39.20;16.35;;;;;;;0.14;78.13;100513.48;1818689;79;21158;-72
2020/12/03 05:06:29;;;;;;;41.00;18.87;;;;;;;0.11;78.15;100505.75;1818708;79;21174;-72
2020/12/03 05:09:03;;;;;;;46.68;19.65;;;;;;;0.26;77.79;100518.97;1818733;79;21309;-73
2020/12/03 05:11:40;;;;;;;;;;;;;;;0.18;77.84;100515.61;1821429;79;21132;-72
2020/12/03 05:14:27;;;;;;;45.10;19.65;;;;;;;0.11;77.96;100518.30;1779948;80;20140;-73
2020/12/03 05:17:05;;;;;;;39.15;17.87;;;;;;;0.18;77.73;100518.20;1818904;79;21618;-74
2020/12/03 05:19:40;;;;;;;40.17;18.40;;;;;;;0.20;77.73;100509.95;1817458;79;21571;-73
2020/12/03 05:22:14;;;;;;;49.18;20.23;;;;;;;0.13;77.81;100515.70;1749472;82;21191;-73
2020/12/03 05:24:43;;;;;;;45.98;19.70;;;;;;;0.09;77.89;100510.09;1818659;79;21602;-72
2020/12/03 05:27:27;;;;;;;39.98;18.48;;;;;;;0.20;77.75;100511.25;1818619;79;21199;-73
2020/12/03 05:29:55;;;;;;;;;;;;;;;0.20;77.80;100515.16;1821631;79;21174;-72
2020/12/03 05:32:22;;;;;;;45.33;18.45;;;;;;;0.11;77.99;100514.39;1780162;80;20463;-72
2020/12/03 05:34:51;;;;;;;40.95;18.12;;;;;;;0.09;78.21;100521.80;1749032;82;21179;-72
2020/12/03 05:37:19;;;;;;;44.03;18.17;;;;;;;0.22;77.83;100526.38;1818718;79;21167;-72
2020/12/03 05:39:57;;;;;;;42.13;18.52;;;;;;;0.18;77.87;100531.22;1760996;79;21642;-72
2020/12/03 05:42:35;;;;;;;42.23;18.80;;;;;;;0.11;77.85;100530.00;1749299;82;21195;-72
2020/12/03 05:45:12;;;;;;;44.58;19.62;;;;;;;0.13;77.82;100526.95;1818649;79;21289;-72
2020/12/03 05:47:42;;;;;;;40.17;18.42;;;;;;;0.26;77.71;100529.38;1801396;79;21139;-72
2020/12/03 05:50:15;;;;;;;35.95;14.58;;;;;;;0.21;77.79;100524.23;1786382;80;21266;-72
2020/12/03 05:53:04;;;;;;;36.30;16.42;;;;;;;0.06;78.24;100529.66;1786623;80;22251;-72
2020/12/03 05:55:31;;;;;;;36.85;17.57;;;;;;;0.06;78.24;100533.11;1747231;80;21631;-72
2020/12/03 05:58:29;;;;;;;45.40;18.65;;;;;;;0.11;78.19;100531.75;1787291;79;21127;-73
2020/12/03 06:01:10;;;;;;;34.88;17.17;;;;;;;0.08;78.28;100539.16;1787271;79;21582;-71
2020/12/03 06:04:17;;;;;;;40.17;17.35;;;;;;;0.04;78.37;100542.70;1778291;79;21115;-72
2020/12/03 06:07:17;;;;;;;40.78;17.23;;;;;;;0.20;77.87;100535.52;1794325;79;21343;-74
2020/12/03 06:10:34;;;;;;;42.00;18.77;;;;;;;0.14;78.08;100531.70;1810252;79;21163;-74
2020/12/03 06:13:37;;;;;;;38.92;17.60;;;;;;;0.09;78.20;100536.11;1721950;83;21313;-74
2020/12/03 06:16:19;;;;;;;34.67;16.15;;;;;;;0.26;77.94;100531.98;1722238;82;21165;-73
2020/12/03 06:19:23;;;;;;;44.55;18.17;;;;;;;0.28;77.71;100527.59;1783178;80;26839;-75
2020/12/03 06:22:29;;;;;;;32.23;13.62;;;;;;;0.14;78.03;100527.38;1751229;81;21475;-73
2020/12/03 06:25:33;;;;;;;31.73;15.60;;;;;;;0.22;78.04;100527.67;1753753;81;21309;-73
2020/12/03 06:28:57;;;;;;;39.42;16.85;;;;;;;0.21;77.75;100525.98;1740023;81;21138;-73
2020/12/03 06:32:11;;;;;;;42.27;17.00;;;;;;;0.04;78.05;100534.89;1761483;81;21799;-74
2020/12/03 06:34:47;;;;;;;28.90;12.33;;;;;;;0.06;78.17;100529.66;1758828;81;21155;-73
2020/12/03 06:37:26;;;;;;;37.30;16.70;;;;;;;0.15;77.83;100529.09;1758938;81;21320;-73
2020/12/03 06:39:58;;;;;;;41.90;16.85;;;;;;;0.06;77.92;100538.77;1761505;81;21277;-73
2020/12/03 06:42:42;;;;;;;47.40;19.95;;;;;;;0.02;78.06;100531.44;1757689;81;21163;-73
2020/12/03 06:45:33;;;;;;;36.55;16.80;;;;;;;0.09;78.01;100536.98;1759387;81;21150;-73
2020/12/03 06:48:16;;;;;;;36.90;15.98;;;;;;;0.06;78.01;100526.61;1743190;81;21299;-73
2020/12/03 06:51:14;;;;;;;40.83;16.80;;;;;;;0.09;77.87;100530.48;1725988;81;21194;-73
2020/12/03 06:54:25;;;;;;;36.42;15.32;;;;;;;0.08;77.92;100533.96;1750924;81;21196;-73
2020/12/03 06:57:45;;;;;;;31.85;14.87;;;;;;;0.13;77.92;100539.95;1756727;81;21533;-74
2020/12/03 07:00:44;;;;;;;34.53;14.25;;;;;;;0.18;77.75;100540.32;1748322;81;21622;-75
2020/12/03 07:03:35;;;;;;;30.90;15.68;;;;;;;-0.01;78.20;100538.00;1759631;81;21138;-75
2020/12/03 07:06:20;;;;;;;35.55;15.95;;;;;;;0.06;78.19;100548.72;1757100;81;21272;-74
2020/12/03 07:09:19;;;;;;;35.60;12.20;;;;;;;0.14;78.10;100552.51;1750653;81;21587;-74
2020/12/03 07:12:04;;;;;;;34.80;16.12;;;;;;;0.02;78.37;100539.24;1759305;80;21223;-73
2020/12/03 07:15:14;;;;;;;33.70;14.98;;;;;;;-0.01;78.62;100538.00;1755278;82;21158;-74
2020/12/03 07:18:15;;;;;;;31.20;13.20;;;;;;;0.06;78.62;100549.17;1731379;82;21112;-74
2020/12/03 07:24:07;;;;;;;33.67;15.20;;;;;;;0.12;78.38;100542.59;1733967;82;21173;-74
2020/12/03 07:27:12;;;;;;;33.95;14.70;;;;;;;0.08;78.66;100541.77;1722818;83;21604;-74
2020/12/03 07:29:58;;;;;;;27.77;12.03;;;;;;;0.14;78.63;100555.11;1716571;82;21147;-74
2020/12/03 07:32:53;;;;;;;23.07;11.20;;;;;;;0.34;78.25;100545.72;1698704;84;21178;-74
2020/12/03 07:35:53;;;;;;;32.33;14.45;;;;;;;0.29;78.28;100551.43;1738653;82;21170;-74
2020/12/03 07:38:38;;;;;;;30.27;15.10;;;;;;;0.16;78.89;100557.25;1746059;82;21167;-75
2020/12/03 07:41:06;;;;;;;36.42;16.80;;;;;;;0.28;78.43;100553.19;1746058;82;21142;-73
2020/12/03 07:43:38;;;;;;;31.48;14.87;;;;;;;0.30;78.28;100550.09;1745878;82;21171;-75
2020/12/03 07:46:32;;;;;;;31.12;13.70;;;;;;;0.23;78.58;100556.72;1746277;82;21119;-75
2020/12/03 07:49:00;;;;;;;36.17;14.83;;;;;;;0.18;78.68;100552.91;1746283;82;21187;-73
2020/12/03 07:51:28;;;;;;;34.20;14.53;;;;;;;0.34;78.38;100543.11;1746303;82;21746;-74
2020/12/03 07:54:19;;;;;;;31.42;13.88;;;;;;;0.40;78.15;100550.83;1746134;82;21189;-73
2020/12/03 07:56:48;;;;;;;37.40;14.23;;;;;;;0.28;78.30;100547.10;1741505;82;21194;-73
2020/12/03 07:59:29;;;;;;;40.73;17.90;;;;;;;0.14;78.59;100552.51;1746206;82;21179;-74
2020/12/03 08:01:59;;;;;;;40.88;17.15;;;;;;;0.15;78.63;100543.41;1746195;82;21564;-72
2020/12/03 08:04:36;;;;;;;39.42;17.77;;;;;;;0.33;78.35;100542.69;1745910;82;21190;-74
2020/12/03 08:07:09;;;;;;;41.58;18.23;;;;;;;0.27;78.37;100542.77;1746186;82;21167;-73
2020/12/03 08:09:47;;;;;;;45.83;18.30;;;;;;;0.19;78.59;100545.95;1746063;82;21571;-73
2020/12/03 08:12:18;;;;;;;48.40;20.50;;;;;;;0.31;78.53;100550.98;1732913;82;21135;-75
2020/12/03 08:14:49;;;;;;;41.13;18.92;;;;;;;0.47;78.05;100544.66;1697085;84;21305;-75
2020/12/03 08:17:30;;;;;;;53.10;21.52;;;;;;;0.42;78.11;100542.56;1723651;83;21175;-75
2020/12/03 08:20:12;;;;;;;37.33;15.65;;;;;;;0.32;78.37;100550.09;1723814;83;21159;-73
2020/12/03 08:22:44;;;;;;;45.20;19.52;;;;;;;0.35;78.29;100545.29;1719906;83;21207;-74
2020/12/03 08:25:23;;;;;;;40.92;18.67;;;;;;;0.37;78.20;100545.69;1713276;84;21329;-74
2020/12/03 08:30:41;;;;;;;45.20;20.68;;;;;;;0.28;78.68;100538.00;1821628;79;22252;-73
2020/12/03 08:33:17;;;;;;;40.85;19.70;;;;;;;0.28;78.65;100535.39;1795115;80;21199;-73
2020/12/03 08:35:50;;;;;;;48.92;20.27;;;;;;;0.36;78.31;100527.05;1794769;80;21316;-73
2020/12/03 08:38:24;;;;;;;38.35;15.63;;;;;;;0.25;78.54;100532.85;1781612;80;21607;-73
2020/12/03 08:40:53;;;;;;;46.10;21.27;;;;;;;0.15;78.80;100538.20;1743580;81;21188;-74
2020/12/03 08:43:21;;;;;;;37.45;17.92;;;;;;;0.27;78.60;100531.06;1720824;83;21183;-72
2020/12/03 08:45:57;;;;;;;54.20;22.50;;;;;;;0.32;78.40;100528.83;1723236;83;21180;-73
2020/12/03 08:48:27;;;;;;;47.08;21.02;;;;;;;0.25;78.65;100523.75;1717421;83;21150;-73
2020/12/03 08:50:58;;;;;;;42.10;19.60;;;;;;;0.19;78.83;100516.03;1753354;81;21133;-73
2020/12/03 08:53:27;;;;;;;54.67;21.48;;;;;;;0.21;78.67;100515.58;1762675;81;21204;-74
2020/12/03 08:55:59;;;;;;;62.45;22.37;;;;;;;0.19;78.76;100500.42;1760216;81;21176;-73
2020/12/03 08:58:26;;;;;;;54.50;23.62;;;;;;;0.13;79.07;100502.23;1693046;83;21163;-73
2020/12/03 09:00:53;;;;;;;53.95;20.80;;;;;;;0.11;79.23;100503.98;1752849;81;21162;-73
2020/12/03 09:03:21;;;;;;;59.42;25.02;;;;;;;0.28;78.94;100493.77;1743686;81;21289;-74
2020/12/03 09:05:49;;;;;;;57.60;23.75;;;;;;;0.26;78.90;100488.59;1755517;81;21170;-74
2020/12/03 09:08:19;;;;;;;47.88;19.77;;;;;;;0.24;78.98;100485.14;1731668;82;21634;-74
2020/12/03 09:10:48;;;;;;;48.42;23.45;;;;;;;0.23;79.07;100486.05;1735731;82;21232;-74
2020/12/03 09:13:18;;;;;;;49.45;20.88;;;;;;;0.31;78.93;100484.63;1708638;82;21175;-71
2020/12/03 09:15:47;;;;;;;50.45;22.90;;;;;;;0.39;78.63;100489.70;1692141;84;21628;-73
2020/12/03 09:18:14;;;;;;;53.83;21.68;;;;;;;0.30;78.89;100485.05;1704996;84;21180;-73
2020/12/03 09:20:46;;;;;;;44.25;17.10;;;;;;;0.20;79.11;100488.69;1704527;84;21180;-73
2020/12/03 09:23:29;;;;;;;53.23;22.67;;;;;;;0.27;78.84;100481.21;1699252;84;21151;-74
2020/12/03 09:25:53;;;;;;;44.00;19.87;;;;;;;0.36;78.50;100484.11;1700403;84;21619;-74
2020/12/03 09:28:20;;;;;;;48.52;19.23;;;;;;;0.30;78.75;100485.05;1709067;82;21899;-74
2020/12/03 09:30:49;;;;;;;48.63;21.77;;;;;;;0.31;79.34;100488.53;1677890;84;21313;-73
2020/12/03 09:33:20;;;;;;;42.45;16.45;;;;;;;0.48;78.69;100473.92;1704686;84;21189;-72
2020/12/03 09:35:48;;;;;;;65.78;30.08;;;;;;;0.49;78.12;100463.48;1702539;84;21138;-73
2020/12/03 09:38:16;;;;;;;41.65;21.02;;;;;;;0.30;78.28;100464.69;1708980;84;21642;-72
2020/12/03 09:40:46;;;;;;;52.58;26.52;;;;;;;0.24;78.42;100461.73;1701989;83;21363;-72
2020/12/03 09:43:18;;;;;;;56.00;27.73;;;;;;;0.32;78.25;100460.33;1696948;84;21167;-71
2020/12/03 09:45:48;;;;;;;41.92;21.05;;;;;;;0.32;78.42;100468.14;1687143;84;21273;-72
2020/12/03 09:48:16;;;;;;;43.63;20.05;;;;;;;0.32;78.13;100468.98;1691980;83;21173;-72
2020/12/03 09:50:45;;;;;;;36.50;18.48;;;;;;;0.38;77.90;100468.01;1697338;84;21314;-73
2020/12/03 09:53:19;;;;;;;39.88;17.55;;;;;;;0.49;77.55;100471.30;1695893;83;21575;-73
2020/12/03 09:55:47;;;;;;;42.20;19.23;;;;;;;0.45;77.65;100463.13;1698594;84;21188;-73
2020/12/03 09:58:19;;;;;;;41.13;17.00;;;;;;;0.38;77.77;100473.67;1697105;83;21195;-72
2020/12/03 10:00:50;;;;;;;41.05;19.45;;;;;;;0.42;77.86;100464.50;1700239;84;21628;-72
2020/12/03 10:03:58;;;;;;;36.25;15.45;;;;;;;0.60;77.58;100463.73;1681505;85;21185;-71
2020/12/03 10:06:38;;;;;;;38.80;17.98;;;;;;;0.57;77.68;100467.71;1681940;84;21921;-71
2020/12/03 10:09:29;;;;;;;39.67;19.17;;;;;;;0.41;77.79;100460.17;1701479;83;21174;-71
2020/12/03 10:12:38;;;;;;;39.63;18.90;;;;;;;0.48;77.79;100456.55;1718477;83;21127;-73
2020/12/03 10:15:33;;;;;;;42.43;19.12;;;;;;;0.56;77.43;100459.48;1687843;84;21163;-71
2020/12/03 10:18:10;;;;;;;48.58;24.15;;;;;;;0.41;77.87;100450.19;1666551;85;21135;-72
2020/12/03 10:20:37;;;;;;;40.15;17.27;;;;;;;0.42;78.01;100450.19;1704391;83;21274;-71
2020/12/03 10:23:23;;;;;;;46.65;21.07;;;;;;;0.50;77.57;100447.45;1717933;83;21296;-73
2020/12/03 10:26:03;;;;;;;52.40;24.23;;;;;;;0.35;77.68;100463.33;1713578;83;21111;-72
2020/12/03 10:28:39;;;;;;;40.23;19.75;;;;;;;0.29;78.10;100469.47;1678153;84;21233;-73
2020/12/03 10:31:07;;;;;;;39.35;20.08;;;;;;;0.46;77.81;100459.65;1725323;83;21190;-73
2020/12/03 10:33:35;;;;;;;37.55;18.82;;;;;;;0.43;77.39;100451.88;1729745;82;21137;-72
2020/12/03 10:36:14;;;;;;;33.78;15.68;;;;;;;0.30;77.57;100451.23;1733501;82;21154;-73
2020/12/03 10:38:45;;;;;;;39.13;18.23;;;;;;;0.30;77.76;100460.79;1689135;83;21277;-72
2020/12/03 10:41:12;;;;;;;37.17;16.73;;;;;;;0.44;77.51;100453.59;1700941;84;21292;-72
2020/12/03 10:43:46;;;;;;;34.13;16.42;;;;;;;0.46;77.58;100453.56;1722952;82;21175;-72
2020/12/03 10:46:19;;;;;;;36.33;17.87;;;;;;;0.39;77.48;100442.86;1697846;83;21175;-72
2020/12/03 10:48:48;;;;;;;39.42;19.77;;;;;;;0.40;77.42;100441.53;1725162;83;21359;-70
2020/12/03 10:51:17;;;;;;;34.35;17.45;;;;;;;0.52;77.14;100433.09;1692800;84;21189;-72
2020/12/03 10:53:47;;;;;;;38.02;17.82;;;;;;;0.43;77.22;100436.72;1716534;83;21187;-71
2020/12/03 10:56:15;;;;;;;39.65;19.87;;;;;;;0.41;77.26;100434.15;1721815;81;21632;-71
2020/12/03 11:01:52;;;;;;;34.45;16.73;;;;;;;0.63;77.24;100428.56;1803153;79;23169;-72
2020/12/03 11:04:20;;;;;;;36.23;17.45;;;;;;;0.59;77.18;100428.17;1698465;84;21142;-72
2020/12/03 11:06:47;;;;;;;40.03;19.45;;;;;;;0.56;77.19;100423.88;1720721;82;21201;-73
2020/12/03 11:09:18;;;;;;;34.18;16.35;;;;;;;0.75;76.49;100421.80;1694239;84;21195;-72
2020/12/03 11:11:48;;;;;;;38.30;19.20;;;;;;;0.80;76.23;100416.06;1679561;85;21200;-72
2020/12/03 11:14:16;;;;;;;33.05;18.45;;;;;;;0.65;76.43;100412.45;1711683;84;21194;-72
2020/12/03 11:17:01;;;;;;;33.15;16.70;;;;;;;0.57;76.62;100415.20;1706446;84;21289;-72
2020/12/03 11:19:32;;;;;;;34.05;17.60;;;;;;;0.73;76.48;100420.98;1698886;84;21174;-72
2020/12/03 11:22:21;;;;;;;49.00;24.50;;;;;;;0.64;76.52;100428.98;1698200;84;21345;-72
2020/12/03 11:25:02;;;;;;;31.73;15.20;;;;;;;0.57;76.73;100433.41;1703154;84;21201;-72
2020/12/03 11:27:30;;;;;;;38.02;18.98;;;;;;;0.62;76.68;100432.04;1695365;84;21289;-72
2020/12/03 11:30:19;;;;;;;34.98;16.85;;;;;;;0.73;76.60;100430.10;1694922;84;21674;-71
2020/12/03 11:32:48;;;;;;;36.68;17.40;;;;;;;0.61;76.27;100435.52;1681763;84;21371;-73
2020/12/03 11:35:27;;;;;;;31.07;15.10;;;;;;;0.44;76.63;100418.92;1700861;84;21221;-72
2020/12/03 11:37:55;;;;;;;39.13;18.82;;;;;;;0.47;76.55;100422.33;1691082;84;21324;-72
2020/12/03 11:43:16;;;;;;;42.73;19.65;;;;;;;0.37;77.01;100424.69;1657063;84;22073;-71
2020/12/03 11:48:32;;;;;;;35.45;17.00;;;;;;;0.42;77.29;100412.88;1781500;78;23624;-72
2020/12/03 11:50:57;;;;;;;37.25;18.70;;;;;;;0.48;77.17;100416.22;1764123;79;21152;-71
2020/12/03 11:53:25;;;;;;;34.25;15.83;;;;;;;0.38;77.17;100407.31;1764496;79;21137;-72
2020/12/03 11:55:52;;;;;;;39.08;19.37;;;;;;;0.38;77.43;100419.03;1761326;81;21206;-72
2020/12/03 11:58:30;;;;;;;36.50;16.45;;;;;;;0.36;77.61;100408.65;1780252;79;21187;-72
2020/12/03 12:01:09;;;;;;;40.78;20.27;;;;;;;0.54;77.41;100410.48;1728655;83;21543;-71
2020/12/03 12:03:37;;;;;;;36.28;18.67;;;;;;;0.65;77.07;100408.12;1741658;81;21181;-71
2020/12/03 12:06:12;;;;;;;40.20;18.00;;;;;;;0.65;76.96;100420.25;1727678;83;21203;-72
2020/12/03 12:08:41;;;;;;;31.73;16.05;;;;;;;0.62;76.80;100413.82;1715633;82;21191;-71